createdAt,value
2019-04-20T00:01:32.001Z,12.20
2019-04-20T00:03:37.625Z,12.10
2019-04-20T00:05:35.039Z,12.00
2019-04-20T00:07:37.661Z,12.00
2019-04-20T00:09:41.713Z,11.90
2019-04-20T00:11:53.560Z,11.90
2019-04-20T00:13:54.952Z,11.80
2019-04-20T00:15:49.247Z,11.90
2019-04-20T00:17:54.225Z,11.80
2019-04-20T00:19:57.265Z,11.80
2019-04-20T00:22:06.304Z,11.80
2019-04-20T00:24:13.201Z,11.80
2019-04-20T00:26:21.472Z,11.80
2019-04-20T00:28:34.281Z,11.90
2019-04-20T00:30:39.069Z,11.90
2019-04-20T00:32:37.666Z,11.90
2019-04-20T00:34:31.508Z,11.90
2019-04-20T00:36:29.040Z,12.00
2019-04-20T00:38:35.202Z,11.90
2019-04-20T00:40:35.572Z,11.90
2019-04-20T00:42:44.943Z,11.80
2019-04-20T00:44:43.839Z,11.80
2019-04-20T00:46:56.851Z,11.70
2019-04-20T00:48:53.989Z,11.70
2019-04-20T00:51:15.425Z,11.50
2019-04-20T00:53:08.102Z,11.50
2019-04-20T00:55:00.014Z,11.50
2019-04-20T00:57:13.484Z,11.40
2019-04-20T00:59:19.337Z,11.30
2019-04-20T01:01:31.138Z,11.30
2019-04-20T01:03:32.259Z,11.20
2019-04-20T01:05:53.636Z,11.10
2019-04-20T01:07:43.170Z,11.20
2019-04-20T01:09:58.341Z,11.20
2019-04-20T01:12:03.228Z,11.20
2019-04-20T01:14:07.821Z,11.30
2019-04-20T01:16:19.483Z,11.10
2019-04-20T01:18:10.750Z,11.10
2019-04-20T01:20:13.282Z,11.10
2019-04-20T01:22:18.447Z,11.10
2019-04-20T01:24:24.793Z,11.10
2019-04-20T01:26:22.720Z,11.00
2019-04-20T01:28:37.276Z,10.90
2019-04-20T01:30:35.270Z,10.90
2019-04-20T01:32:50.667Z,10.90
2019-04-20T01:34:50.214Z,10.90
2019-04-20T01:36:55.921Z,11.00
2019-04-20T01:38:56.760Z,11.10
2019-04-20T01:40:46.452Z,11.10
2019-04-20T01:42:48.996Z,11.10
2019-04-20T01:44:53.790Z,11.10
2019-04-20T01:46:58.783Z,10.90
2019-04-20T01:48:59.928Z,10.80
2019-04-20T01:51:07.156Z,10.70
2019-04-20T01:53:12.446Z,10.70
2019-04-20T01:55:40.110Z,10.60
2019-04-20T01:57:32.975Z,10.50
2019-04-20T01:59:46.998Z,10.40
2019-04-20T02:01:45.954Z,10.50
2019-04-20T02:04:03.233Z,10.50
2019-04-20T02:06:11.483Z,10.60
2019-04-20T02:08:15.617Z,10.60
2019-04-20T02:10:16.573Z,10.60
2019-04-20T02:12:23.653Z,10.50
2019-04-20T02:14:28.754Z,10.50
2019-04-20T02:16:34.955Z,10.50
2019-04-20T02:18:40.108Z,10.40
2019-04-20T02:20:53.035Z,10.40
2019-04-20T02:22:51.820Z,10.40
2019-04-20T02:24:38.820Z,10.40
2019-04-20T02:26:41.018Z,10.40
2019-04-20T02:29:09.543Z,10.40
2019-04-20T02:31:23.041Z,10.40
2019-04-20T02:33:34.436Z,10.40
2019-04-20T02:35:48.046Z,10.40
2019-04-20T02:38:01.329Z,10.30
2019-04-20T02:39:51.349Z,10.40
2019-04-20T02:41:51.017Z,10.30
2019-04-20T02:45:50.526Z,10.30
2019-04-20T02:48:06.505Z,10.00
2019-04-20T02:52:13.189Z,10.10
2019-04-20T02:56:12.364Z,10.00
2019-04-20T02:58:14.990Z,10.00
2019-04-20T03:00:12.281Z,10.00
2019-04-20T03:02:13.370Z,9.90
2019-04-20T03:03:58.108Z,9.90
2019-04-20T03:06:12.479Z,9.80
2019-04-20T03:08:20.271Z,9.80
2019-04-20T03:10:25.071Z,9.70
2019-04-20T03:12:33.461Z,9.80
2019-04-20T03:14:26.607Z,9.80
2019-04-20T03:16:31.843Z,9.80
2019-04-20T03:18:39.871Z,9.70
2019-04-20T03:20:45.988Z,9.70
2019-04-20T03:23:11.625Z,9.60
2019-04-20T03:24:53.974Z,9.60
2019-04-20T03:26:54.491Z,9.50
2019-04-20T03:29:01.548Z,9.50
2019-04-20T03:35:35.454Z,9.50
2019-04-20T03:37:27.992Z,9.40
2019-04-20T03:39:27.713Z,9.40
2019-04-20T03:41:21.881Z,9.50
2019-04-20T03:43:13.841Z,9.50
2019-04-20T03:45:19.565Z,9.40
2019-04-20T03:47:30.478Z,9.30
2019-04-20T03:49:52.928Z,9.30
2019-04-20T03:51:47.006Z,9.20
2019-04-20T03:54:03.749Z,9.10
2019-04-20T03:56:19.470Z,9.10
2019-04-20T03:58:19.716Z,9.10
2019-04-20T04:00:26.462Z,9.10
2019-04-20T04:02:47.888Z,9.10
2019-04-20T04:04:56.338Z,9.10
2019-04-20T04:06:47.862Z,9.10
2019-04-20T04:08:57.582Z,9.00
2019-04-20T04:11:06.651Z,8.90
2019-04-20T04:13:05.176Z,8.90
2019-04-20T04:15:07.027Z,8.90
2019-04-20T04:17:12.174Z,8.90
2019-04-20T04:19:20.985Z,8.90
2019-04-20T04:21:23.179Z,8.90
2019-04-20T04:23:38.175Z,8.90
2019-04-20T04:25:33.650Z,8.80
2019-04-20T04:27:40.486Z,8.70
2019-04-20T04:29:46.675Z,8.70
2019-04-20T04:31:55.376Z,8.60
2019-04-20T04:35:51.340Z,8.70
2019-04-20T04:38:02.771Z,8.70
2019-04-20T04:40:16.518Z,8.70
2019-04-20T04:42:20.311Z,8.60
2019-04-20T04:44:09.610Z,8.60
2019-04-20T04:45:55.516Z,8.70
2019-04-20T04:47:57.958Z,8.60
2019-04-20T04:50:08.936Z,8.60
2019-04-20T04:52:07.910Z,8.50
2019-04-20T04:54:16.768Z,8.50
2019-04-20T04:56:14.428Z,8.50
2019-04-20T04:58:12.814Z,8.60
2019-04-20T05:00:17.903Z,8.50
2019-04-20T05:02:18.142Z,8.60
2019-04-20T05:04:55.140Z,8.60
2019-04-20T05:06:37.411Z,8.50
2019-04-20T05:08:36.748Z,8.40
2019-04-20T05:10:33.057Z,8.40
2019-04-20T05:12:37.001Z,8.40
2019-04-20T05:14:47.083Z,8.40
2019-04-20T05:16:55.200Z,8.30
2019-04-20T05:19:11.903Z,8.30
2019-04-20T05:21:10.139Z,8.20
2019-04-20T05:23:20.536Z,8.30
2019-04-20T05:25:26.693Z,8.30
2019-04-20T05:27:36.384Z,8.30
2019-04-20T05:29:24.910Z,8.40
2019-04-20T05:31:23.480Z,8.30
2019-04-20T05:33:40.506Z,8.30
2019-04-20T05:35:52.530Z,8.50
2019-04-20T05:38:03.082Z,8.50
2019-04-20T05:40:00.349Z,8.50
2019-04-20T05:41:53.208Z,8.60
2019-04-20T05:43:59.817Z,8.60
2019-04-20T05:46:04.245Z,8.70
2019-04-20T05:48:08.976Z,8.80
2019-04-20T05:50:06.227Z,8.90
2019-04-20T05:52:31.017Z,9.00
2019-04-20T05:54:23.363Z,9.00
2019-04-20T05:56:33.069Z,9.10
2019-04-20T05:58:26.089Z,9.20
2019-04-20T06:00:34.514Z,9.20
2019-04-20T06:02:33.539Z,9.30
2019-04-20T06:04:54.367Z,9.40
2019-04-20T06:06:45.117Z,9.50
2019-04-20T06:08:59.519Z,9.50
2019-04-20T06:10:52.165Z,9.60
2019-04-20T06:12:51.714Z,9.80
2019-04-20T06:14:51.787Z,9.90
2019-04-20T06:17:04.189Z,9.90
2019-04-20T06:19:14.277Z,10.00
2019-04-20T06:21:20.122Z,10.10
2019-04-20T06:23:40.379Z,10.20
2019-04-20T06:25:54.849Z,10.30
2019-04-20T06:27:52.521Z,10.30
2019-04-20T06:29:53.829Z,10.50
2019-04-20T06:31:57.994Z,10.60
2019-04-20T06:36:27.591Z,10.80
2019-04-20T06:38:43.112Z,10.90
2019-04-20T06:40:50.213Z,11.10
2019-04-20T06:42:34.279Z,11.20
2019-04-20T06:44:41.336Z,11.30
2019-04-20T06:46:48.658Z,11.40
2019-04-20T06:48:45.887Z,11.50
2019-04-20T06:50:44.358Z,11.60
2019-04-20T06:53:18.791Z,11.70
2019-04-20T06:55:13.889Z,11.90
2019-04-20T06:57:18.358Z,12.00
2019-04-20T06:59:29.061Z,12.10
2019-04-20T07:01:25.111Z,12.30
2019-04-20T07:03:42.174Z,12.40
2019-04-20T07:05:32.593Z,12.50
2019-04-20T07:07:36.018Z,12.60
2019-04-20T07:09:57.130Z,12.80
2019-04-20T07:11:44.034Z,12.90
2019-04-20T07:13:35.907Z,13.00
2019-04-20T07:15:54.182Z,13.10
2019-04-20T07:18:26.503Z,13.10
2019-04-20T07:20:04.218Z,13.20
2019-04-20T07:22:32.201Z,13.20
2019-04-20T07:24:35.090Z,13.40
2019-04-20T07:26:41.790Z,13.60
2019-04-20T07:28:42.013Z,13.70
2019-04-20T07:30:35.392Z,13.80
2019-04-20T07:32:48.624Z,13.90
2019-04-20T07:34:40.181Z,14.00
2019-04-20T07:36:51.471Z,14.00
2019-04-20T07:38:54.242Z,14.10
2019-04-20T07:40:52.409Z,14.20
2019-04-20T07:42:55.160Z,14.30
2019-04-20T07:45:01.254Z,14.50
2019-04-20T07:47:08.888Z,14.60
2019-04-20T07:49:07.676Z,14.70
2019-04-20T07:50:59.206Z,14.70
2019-04-20T07:53:08.688Z,14.80
2019-04-20T07:57:16.971Z,14.90
2019-04-20T07:59:13.937Z,15.00
2019-04-20T08:01:53.031Z,15.10
2019-04-20T08:03:55.712Z,15.40
2019-04-20T08:05:55.194Z,15.40
2019-04-20T08:08:02.689Z,15.50
2019-04-20T08:09:57.358Z,15.60
2019-04-20T08:12:25.680Z,15.80
2019-04-20T08:14:24.135Z,15.80
2019-04-20T08:16:43.938Z,15.80
2019-04-20T08:18:32.233Z,15.90
2019-04-20T08:20:35.218Z,16.00
2019-04-20T08:22:46.660Z,16.00
2019-04-20T08:24:37.640Z,16.20
2019-04-20T08:26:30.948Z,16.30
2019-04-20T08:28:39.182Z,16.40
2019-04-20T08:30:51.673Z,16.50
2019-04-20T08:33:05.191Z,16.60
2019-04-20T08:35:13.954Z,16.60
2019-04-20T08:37:13.319Z,16.70
2019-04-20T08:39:30.586Z,16.70
2019-04-20T08:41:16.966Z,16.80
2019-04-20T08:43:37.953Z,16.90
2019-04-20T08:45:35.045Z,17.00
2019-04-20T08:47:53.323Z,17.10
2019-04-20T08:49:42.102Z,17.20
2019-04-20T08:51:53.660Z,17.30
2019-04-20T08:53:41.826Z,17.40
2019-04-20T08:55:41.321Z,17.50
2019-04-20T08:57:29.858Z,17.70
2019-04-20T08:59:35.057Z,17.80
2019-04-20T09:01:37.408Z,17.90
2019-04-20T09:03:51.530Z,18.00
2019-04-20T09:05:52.214Z,18.10
2019-04-20T09:07:56.533Z,18.30
2019-04-20T09:10:11.815Z,18.40
2019-04-20T09:12:08.976Z,18.50
2019-04-20T09:14:00.224Z,18.70
2019-04-20T09:16:00.487Z,18.70
2019-04-20T09:18:20.983Z,18.80
2019-04-20T09:20:16.486Z,18.80
2019-04-20T09:22:46.606Z,18.90
2019-04-20T09:25:04.195Z,18.90
2019-04-20T09:26:54.300Z,19.00
2019-04-20T09:29:00.539Z,19.30
2019-04-20T09:31:11.911Z,19.30
2019-04-20T09:33:35.978Z,19.40
2019-04-20T09:35:41.574Z,19.50
2019-04-20T09:37:47.289Z,19.60
2019-04-20T09:39:52.882Z,19.80
2019-04-20T09:42:00.753Z,19.90
2019-04-20T09:43:58.316Z,19.90
2019-04-20T09:46:04.621Z,20.00
2019-04-20T09:48:07.049Z,20.00
2019-04-20T09:50:22.578Z,20.20
2019-04-20T09:52:21.316Z,20.30
2019-04-20T09:54:32.630Z,20.40
2019-04-20T09:56:32.449Z,20.40
2019-04-20T09:58:31.081Z,20.50
2019-04-20T10:00:42.121Z,20.60
2019-04-20T10:02:34.457Z,20.70
2019-04-20T10:04:33.523Z,20.80
2019-04-20T10:06:36.489Z,20.80
2019-04-20T10:08:43.589Z,20.90
2019-04-20T10:10:45.382Z,21.20
2019-04-20T10:12:45.654Z,21.30
2019-04-20T10:14:46.982Z,21.40
2019-04-20T10:16:49.604Z,21.50
2019-04-20T10:18:53.590Z,21.70
2019-04-20T10:20:54.226Z,21.60
2019-04-20T10:22:56.339Z,21.60
2019-04-20T10:24:57.739Z,21.80
2019-04-20T10:27:00.703Z,21.80
2019-04-20T10:29:03.503Z,21.90
2019-04-20T10:31:04.902Z,22.10
2019-04-20T10:33:06.174Z,22.10
2019-04-20T10:35:08.951Z,22.30
2019-04-20T10:37:13.530Z,22.40
2019-04-20T10:39:16.802Z,22.50
2019-04-20T10:41:29.590Z,22.60
2019-04-20T10:43:21.904Z,22.80
2019-04-20T10:45:24.181Z,22.90
2019-04-20T10:47:25.623Z,23.00
2019-04-20T10:49:27.185Z,23.10
2019-04-20T10:51:29.521Z,23.10
2019-04-20T10:53:32.096Z,23.30
2019-04-20T10:55:33.641Z,23.20
2019-04-20T10:57:35.417Z,23.20
2019-04-20T10:59:37.258Z,23.30
2019-04-20T11:01:39.976Z,23.40
2019-04-20T11:03:42.638Z,23.50
2019-04-20T11:05:44.698Z,23.50
2019-04-20T11:07:46.346Z,23.70
2019-04-20T11:09:47.690Z,23.70
2019-04-20T11:11:50.473Z,23.80
2019-04-20T11:13:53.090Z,23.90
2019-04-20T11:15:54.665Z,24.10
2019-04-20T11:17:57.536Z,24.20
2019-04-20T11:19:59.212Z,24.30
2019-04-20T11:22:02.100Z,24.40
2019-04-20T11:24:04.599Z,24.40
2019-04-20T11:26:06.333Z,24.50
2019-04-20T11:28:08.200Z,24.70
2019-04-20T11:30:10.199Z,24.80
2019-04-20T11:32:14.063Z,24.90
2019-04-20T11:34:21.877Z,25.10
2019-04-20T11:36:19.068Z,25.20
2019-04-20T11:38:21.895Z,25.30
2019-04-20T11:40:23.474Z,25.30
2019-04-20T11:42:25.693Z,25.50
2019-04-20T11:44:31.128Z,25.40
2019-04-20T11:46:30.529Z,25.50
2019-04-20T11:48:32.018Z,25.60
2019-04-20T11:50:33.667Z,25.60
2019-04-20T11:52:38.787Z,25.70
2019-04-20T11:54:40.008Z,26.00
2019-04-20T11:56:45.205Z,26.30
2019-04-20T11:58:44.917Z,26.40
2019-04-20T12:00:56.250Z,26.60
2019-04-20T12:03:09.576Z,26.60
2019-04-20T12:05:17.659Z,26.80
2019-04-20T12:07:09.085Z,26.90
2019-04-20T12:09:10.787Z,27.00
2019-04-20T12:11:26.475Z,27.20
2019-04-20T12:13:16.440Z,27.30
2019-04-20T12:15:18.836Z,27.40
2019-04-20T12:17:20.069Z,27.50
2019-04-20T12:19:22.662Z,27.60
2019-04-20T12:21:24.351Z,27.80
2019-04-20T12:23:26.498Z,28.00
2019-04-20T12:25:28.502Z,28.00
2019-04-20T12:27:32.453Z,28.10
2019-04-20T12:29:34.049Z,28.20
2019-04-20T12:31:35.706Z,28.40
2019-04-20T12:33:37.139Z,28.20
2019-04-20T12:35:38.492Z,28.40
2019-04-20T12:37:40.923Z,28.50
2019-04-20T12:39:42.899Z,28.60
2019-04-20T12:41:50.438Z,28.80
2019-04-20T12:43:47.712Z,28.80
2019-04-20T12:45:49.675Z,29.00
2019-04-20T12:47:51.547Z,29.20
2019-04-20T12:49:53.766Z,29.40
2019-04-20T12:51:59.435Z,29.60
2019-04-20T12:53:58.433Z,29.80
2019-04-20T12:55:59.907Z,29.90
2019-04-20T12:58:01.084Z,30.00
2019-04-20T13:00:09.904Z,30.00
2019-04-20T13:02:11.851Z,30.00
2019-04-20T13:04:14.307Z,30.10
2019-04-20T13:06:16.264Z,30.20
2019-04-20T13:08:21.718Z,30.30
2019-04-20T13:10:21.445Z,30.50
2019-04-20T13:12:34.371Z,30.70
2019-04-20T13:14:46.482Z,30.80
2019-04-20T13:16:50.181Z,30.70
2019-04-20T13:18:57.139Z,30.90
2019-04-20T13:20:59.901Z,31.00
2019-04-20T13:23:03.652Z,31.10
2019-04-20T13:25:07.226Z,31.10
2019-04-20T13:27:09.025Z,31.40
2019-04-20T13:29:11.000Z,31.40
2019-04-20T13:31:13.598Z,31.60
2019-04-20T13:33:15.165Z,31.80
2019-04-20T13:35:16.479Z,31.90
2019-04-20T13:37:18.062Z,31.90
2019-04-20T13:39:19.896Z,32.00
2019-04-20T13:41:22.058Z,32.10
2019-04-20T13:43:23.867Z,32.30
2019-04-20T13:45:25.209Z,32.40
2019-04-20T13:47:28.186Z,32.60
2019-04-20T13:49:31.166Z,32.60
2019-04-20T13:51:32.863Z,32.70
2019-04-20T13:53:35.034Z,32.50
2019-04-20T13:55:36.796Z,32.50
2019-04-20T13:57:53.834Z,32.60
2019-04-20T13:59:58.159Z,32.80
2019-04-20T14:02:01.328Z,32.80
2019-04-20T14:04:20.923Z,33.00
2019-04-20T14:06:22.624Z,33.10
2019-04-20T14:08:25.294Z,32.60
2019-04-20T14:10:27.070Z,32.70
2019-04-20T14:12:35.346Z,32.80
2019-04-20T14:14:33.054Z,32.80
2019-04-20T14:16:34.812Z,33.00
2019-04-20T14:18:37.159Z,33.10
2019-04-20T14:20:40.085Z,33.20
2019-04-20T14:22:42.931Z,33.40
2019-04-20T14:24:45.175Z,33.50
2019-04-20T14:26:48.809Z,33.30
2019-04-20T14:28:51.209Z,33.30
2019-04-20T14:30:54.045Z,33.20
2019-04-20T14:32:56.517Z,33.40
2019-04-20T14:34:58.793Z,33.60
2019-04-20T14:37:00.393Z,33.70
2019-04-20T14:39:02.395Z,33.90
2019-04-20T14:41:06.400Z,34.00
2019-04-20T14:43:08.905Z,33.90
2019-04-20T14:45:10.992Z,34.00
2019-04-20T14:47:12.179Z,34.00
2019-04-20T14:49:14.625Z,33.90
2019-04-20T14:51:17.111Z,33.80
2019-04-20T14:53:19.847Z,34.00
2019-04-20T14:55:22.451Z,34.00
2019-04-20T14:57:25.502Z,33.80
2019-04-20T14:59:31.667Z,34.00
2019-04-20T15:01:44.902Z,34.20
2019-04-20T15:03:52.049Z,34.10
2019-04-20T15:05:51.287Z,34.20
2019-04-20T15:07:52.738Z,34.20
2019-04-20T15:09:55.100Z,34.20
2019-04-20T15:11:56.954Z,34.10
2019-04-20T15:13:58.609Z,34.00
2019-04-20T15:15:59.761Z,34.10
2019-04-20T15:18:05.894Z,33.50
2019-04-20T15:20:09.769Z,33.70
2019-04-20T15:22:29.618Z,33.60
2019-04-20T15:24:31.530Z,33.20
2019-04-20T15:26:34.147Z,33.10
2019-04-20T15:28:36.597Z,32.90
2019-04-20T15:30:38.361Z,32.70
2019-04-20T15:32:40.918Z,32.70
2019-04-20T15:34:42.686Z,32.50
2019-04-20T15:36:44.373Z,32.70
2019-04-20T15:38:45.643Z,32.60
2019-04-20T15:40:46.991Z,32.80
2019-04-20T15:42:58.136Z,33.10
2019-04-20T15:44:51.530Z,33.30
2019-04-20T15:46:53.144Z,33.40
2019-04-20T15:48:55.786Z,33.10
2019-04-20T15:50:58.216Z,33.10
2019-04-20T15:53:00.782Z,32.90
2019-04-20T15:55:16.909Z,33.00
2019-04-20T15:57:14.542Z,33.00
2019-04-20T15:59:12.646Z,32.80
2019-04-20T16:01:14.643Z,32.90
2019-04-20T16:03:27.557Z,32.80
2019-04-20T16:05:43.022Z,32.60
2019-04-20T16:07:50.318Z,32.60
2019-04-20T16:09:48.496Z,32.40
2019-04-20T16:11:51.003Z,32.40
2019-04-20T16:13:55.408Z,32.20
2019-04-20T16:15:56.154Z,32.10
2019-04-20T16:17:58.908Z,32.00
2019-04-20T16:20:07.933Z,31.70
2019-04-20T16:22:05.823Z,31.70
2019-04-20T16:24:10.758Z,31.80
2019-04-20T16:26:31.607Z,31.90
2019-04-20T16:28:32.981Z,31.90
2019-04-20T16:30:35.730Z,31.90
2019-04-20T16:32:38.562Z,31.80
2019-04-20T16:34:40.319Z,31.50
2019-04-20T16:36:41.694Z,31.70
2019-04-20T16:38:43.567Z,31.70
2019-04-20T16:40:46.180Z,31.80
2019-04-20T16:42:48.024Z,31.60
2019-04-20T16:44:49.588Z,31.60
2019-04-20T16:46:52.146Z,31.50
2019-04-20T16:48:54.966Z,31.40
2019-04-20T16:50:56.486Z,31.40
2019-04-20T16:52:59.040Z,31.20
2019-04-20T16:55:02.011Z,30.90
2019-04-20T16:57:04.712Z,30.90
2019-04-20T16:59:10.290Z,30.80
2019-04-20T17:01:10.056Z,30.60
2019-04-20T17:03:11.329Z,30.30
2019-04-20T17:05:13.533Z,29.90
2019-04-20T17:07:18.414Z,29.00
2019-04-20T17:09:20.014Z,28.10
2019-04-20T17:11:21.657Z,27.50
2019-04-20T17:13:35.075Z,27.10
2019-04-20T17:15:27.641Z,26.80
2019-04-20T17:17:29.534Z,26.30
2019-04-20T17:19:31.443Z,25.90
2019-04-20T17:21:34.208Z,25.40
2019-04-20T17:23:37.343Z,25.00
2019-04-20T17:25:39.862Z,24.80
2019-04-20T17:27:52.996Z,24.50
2019-04-20T17:30:05.285Z,24.30
2019-04-20T17:32:09.869Z,24.10
2019-04-20T17:34:34.006Z,24.00
2019-04-20T17:36:20.789Z,24.00
2019-04-20T17:38:18.448Z,23.70
2019-04-20T17:40:44.248Z,23.50
2019-04-20T17:42:37.469Z,23.40
2019-04-20T17:44:41.569Z,23.40
2019-04-20T17:46:43.851Z,23.10
2019-04-20T17:48:43.202Z,22.90
2019-04-20T17:51:01.398Z,22.80
2019-04-20T17:52:54.441Z,22.70
2019-04-20T17:54:45.212Z,22.40
2019-04-20T17:56:46.758Z,22.00
2019-04-20T17:58:48.286Z,21.90
2019-04-20T18:01:24.102Z,21.90
2019-04-20T18:03:54.069Z,22.00
2019-04-20T18:05:39.552Z,22.00
2019-04-20T18:07:56.337Z,21.90
2019-04-20T18:09:54.749Z,21.80
2019-04-20T18:11:38.080Z,21.60
2019-04-20T18:13:34.215Z,21.40
2019-04-20T18:15:59.275Z,21.30
2019-04-20T18:18:18.700Z,21.20
2019-04-20T18:20:12.990Z,21.20
2019-04-20T18:22:14.330Z,21.20
2019-04-20T18:24:38.718Z,21.10
2019-04-20T18:26:38.371Z,20.90
2019-04-20T18:28:46.504Z,21.00
2019-04-20T18:30:41.793Z,20.90
2019-04-20T18:32:37.818Z,20.70
2019-04-20T18:34:53.017Z,20.60
2019-04-20T18:36:51.591Z,20.40
2019-04-20T18:39:00.611Z,20.20
2019-04-20T18:41:02.663Z,20.10
2019-04-20T18:43:07.307Z,20.20
2019-04-20T18:45:25.665Z,20.10
2019-04-20T18:47:29.048Z,20.00
2019-04-20T18:49:27.253Z,20.00
2019-04-20T18:51:15.474Z,19.90
2019-04-20T18:53:26.817Z,19.80
2019-04-20T18:55:29.035Z,19.70
2019-04-20T18:57:26.071Z,19.70
2019-04-20T18:59:35.219Z,19.80
2019-04-20T19:01:34.503Z,19.80
2019-04-20T19:03:40.269Z,19.90
2019-04-20T19:05:37.849Z,19.80
2019-04-20T19:07:45.348Z,19.70
2019-04-20T19:09:42.975Z,19.50
2019-04-20T19:11:51.900Z,19.50
2019-04-20T19:14:12.929Z,19.40
2019-04-20T19:16:26.656Z,19.30
2019-04-20T19:18:50.778Z,19.10
2019-04-20T19:20:39.090Z,19.00
2019-04-20T19:22:41.994Z,18.90
2019-04-20T19:24:45.003Z,18.90
2019-04-20T19:26:51.541Z,18.80
2019-04-20T19:28:54.462Z,18.70
2019-04-20T19:31:06.768Z,18.60
2019-04-20T19:33:14.335Z,18.60
2019-04-20T19:35:10.205Z,18.50
2019-04-20T19:37:14.314Z,18.30
2019-04-20T19:39:21.343Z,18.20
2019-04-20T19:41:25.278Z,18.10
2019-04-20T19:43:22.649Z,18.10
2019-04-20T19:45:42.600Z,18.00
2019-04-20T19:47:42.931Z,17.90
2019-04-20T19:49:35.696Z,17.80
2019-04-20T19:51:46.801Z,17.60
2019-04-20T19:53:58.704Z,17.70
2019-04-20T19:55:47.802Z,17.70
2019-04-20T19:57:56.537Z,17.50
2019-04-20T19:59:48.377Z,17.30
2019-04-20T20:01:45.409Z,17.10
2019-04-20T20:03:50.627Z,17.00
2019-04-20T20:05:52.305Z,17.20
2019-04-20T20:08:03.770Z,17.30
2019-04-20T20:10:01.499Z,17.20
2019-04-20T20:12:04.908Z,17.10
2019-04-20T20:14:06.071Z,17.20
2019-04-20T20:16:15.981Z,17.10
2019-04-20T20:18:27.418Z,17.00
2019-04-20T20:20:35.974Z,17.00
2019-04-20T20:22:25.252Z,16.80
2019-04-20T20:24:19.972Z,16.80
2019-04-20T20:26:31.043Z,16.70
2019-04-20T20:28:33.633Z,16.70
2019-04-20T20:30:36.257Z,16.60
2019-04-20T20:32:47.937Z,16.50
2019-04-20T20:34:42.126Z,16.50
2019-04-20T20:36:48.041Z,16.50
2019-04-20T20:38:48.542Z,16.30
2019-04-20T20:41:01.536Z,16.30
2019-04-20T20:43:01.562Z,16.20
2019-04-20T20:45:02.890Z,16.10
2019-04-20T20:47:05.553Z,15.80
2019-04-20T20:49:26.657Z,15.60
2019-04-20T20:51:28.769Z,15.40
2019-04-20T20:53:14.213Z,15.30
2019-04-20T20:55:20.950Z,15.10
2019-04-20T20:57:19.993Z,15.20
2019-04-20T20:59:30.510Z,15.10
2019-04-20T21:01:25.386Z,15.00
2019-04-20T21:03:32.198Z,15.00
2019-04-20T21:05:29.394Z,15.00
2019-04-20T21:07:31.082Z,15.10
2019-04-20T21:09:33.445Z,15.20
2019-04-20T21:11:36.343Z,15.30
2019-04-20T21:13:42.390Z,15.20
2019-04-20T21:15:45.403Z,15.30
2019-04-20T21:18:08.479Z,15.20
2019-04-20T21:20:05.284Z,15.20
2019-04-20T21:22:01.748Z,15.20
2019-04-20T21:24:05.153Z,15.30
2019-04-20T21:26:20.299Z,15.20
2019-04-20T21:28:13.115Z,15.10
2019-04-20T21:30:18.627Z,15.10
2019-04-20T21:32:19.805Z,15.00
2019-04-20T21:34:22.282Z,14.90
2019-04-20T21:36:29.499Z,14.90
2019-04-20T21:38:31.432Z,14.70
2019-04-20T21:40:39.342Z,14.70
2019-04-20T21:42:45.503Z,14.40
2019-04-20T21:44:42.935Z,14.30
2019-04-20T21:46:48.800Z,14.40
2019-04-20T21:48:59.595Z,14.30
2019-04-20T21:51:02.497Z,14.20
2019-04-20T21:52:58.580Z,14.10
2019-04-20T21:54:56.194Z,13.80
2019-04-20T21:57:03.119Z,13.50
2019-04-20T21:59:04.208Z,13.40
2019-04-20T22:01:16.381Z,13.50
2019-04-20T22:03:11.069Z,13.70
2019-04-20T22:05:13.479Z,13.80
2019-04-20T22:07:16.404Z,13.80
2019-04-20T22:09:18.206Z,13.80
2019-04-20T22:11:21.911Z,13.80
2019-04-20T22:13:29.597Z,13.70
2019-04-20T22:15:33.244Z,13.40
2019-04-20T22:17:34.563Z,13.20
2019-04-20T22:19:44.031Z,13.00
2019-04-20T22:21:50.348Z,12.90
2019-04-20T22:23:57.208Z,13.10
2019-04-20T22:25:58.426Z,13.20
2019-04-20T22:27:48.392Z,13.40
2019-04-20T22:29:50.222Z,13.40
2019-04-20T22:31:57.417Z,13.10
2019-04-20T22:33:54.720Z,13.10
2019-04-20T22:36:01.121Z,13.10
2019-04-20T22:38:08.546Z,13.10
2019-04-20T22:40:06.802Z,12.70
2019-04-20T22:42:11.317Z,12.40
2019-04-20T22:44:15.172Z,12.30
2019-04-20T22:46:18.410Z,12.20
2019-04-20T22:48:20.647Z,12.50
2019-04-20T22:50:34.230Z,12.70
2019-04-20T22:52:42.435Z,12.60
2019-04-20T22:54:39.506Z,12.80
2019-04-20T22:56:43.721Z,12.80
2019-04-20T22:58:44.861Z,12.80
2019-04-20T23:00:45.236Z,12.90
2019-04-20T23:02:40.836Z,12.80
2019-04-20T23:04:42.686Z,12.80
2019-04-20T23:06:48.496Z,12.70
2019-04-20T23:08:56.435Z,12.70
2019-04-20T23:10:51.478Z,12.70
2019-04-20T23:12:56.193Z,12.60
2019-04-20T23:14:56.470Z,12.50
2019-04-20T23:16:57.956Z,12.40
2019-04-20T23:19:00.287Z,12.30
2019-04-20T23:21:07.973Z,12.20
2019-04-20T23:23:05.029Z,12.10
2019-04-20T23:25:07.119Z,12.00
2019-04-20T23:27:13.943Z,11.90
2019-04-20T23:29:11.694Z,12.00
2019-04-20T23:31:18.351Z,11.90
2019-04-20T23:33:16.400Z,11.80
2019-04-20T23:35:21.065Z,11.60
2019-04-20T23:37:28.263Z,11.50
2019-04-20T23:39:30.142Z,11.40
2019-04-20T23:41:28.549Z,11.30
2019-04-20T23:43:43.637Z,11.20
2019-04-20T23:46:08.332Z,11.20
2019-04-20T23:48:10.159Z,11.30
2019-04-20T23:50:36.952Z,11.40
2019-04-20T23:52:42.879Z,11.30
2019-04-20T23:54:27.398Z,11.30
2019-04-20T23:56:25.499Z,11.30
2019-04-20T23:58:30.913Z,11.10
